Time;durP1;ratioP1;P1;durP2;ratioP2;P2;SDS_P1;SDS_P2;PMS_P1;PMS_P2;Temp;Humidity;BMP_temperature;BMP_pressure;BME280_temperature;BME280_humidity;BME280_pressure;Samples;Min_cycle;Max_cycle;Signal;HPM_P1;HPM_P2
2022/10/17 00:00:38;;;;;;;17.02;9.90;;;;;;;10.55;46.25;100975.63;5014435;28;20029;-79
2022/10/17 00:03:04;;;;;;;12.98;9.77;;;;;;;9.87;46.34;100859.59;5012843;28;20037;-79
2022/10/17 00:05:30;;;;;;;13.18;9.60;;;;;;;10.48;46.55;100973.56;5012744;28;20022;-79
2022/10/17 00:07:55;;;;;;;17.75;9.50;;;;;;;10.00;46.27;100902.34;5013917;28;20053;-79
2022/10/17 00:10:21;;;;;;;13.25;9.40;;;;;;;10.44;46.49;100979.28;5014271;28;20076;-79
2022/10/17 00:12:46;;;;;;;13.23;9.70;;;;;;;10.03;46.78;100901.22;5013955;28;20033;-79
2022/10/17 00:15:15;;;;;;;16.13;9.65;;;;;;;10.47;46.49;100976.34;5013919;28;20520;-79
2022/10/17 00:17:41;;;;;;;16.73;9.90;;;;;;;10.21;46.97;100946.22;5013745;28;20084;-79
2022/10/17 00:20:07;;;;;;;11.68;9.05;;;;;;;10.44;46.66;100974.00;5013820;28;20507;-79
2022/10/17 00:22:32;;;;;;;12.02;10.13;;;;;;;9.75;46.37;100863.34;5012541;28;20479;-79
2022/10/17 00:24:58;;;;;;;12.82;9.18;;;;;;;10.46;46.67;100977.31;5013496;28;20103;-79
2022/10/17 00:27:23;;;;;;;13.77;9.63;;;;;;;10.40;46.85;100975.22;5013562;28;20025;-79
2022/10/17 00:29:50;;;;;;;13.18;8.82;;;;;;;10.07;47.11;100921.06;5013367;28;20037;-79
2022/10/17 00:32:16;;;;;;;15.40;10.00;;;;;;;9.98;46.71;100917.47;5012200;28;20589;-79
2022/10/17 00:34:42;;;;;;;11.90;8.90;;;;;;;10.36;46.97;100997.59;5011614;28;20028;-79
2022/10/17 00:37:07;;;;;;;14.00;8.20;;;;;;;9.88;47.05;100904.28;5012214;28;20101;-79
2022/10/17 00:39:33;;;;;;;13.98;9.07;;;;;;;10.33;46.83;100964.41;5013537;28;20096;-79
2022/10/17 00:41:58;;;;;;;11.90;8.13;;;;;;;10.40;47.06;100981.38;5013260;28;20026;-79
2022/10/17 00:44:29;;;;;;;10.63;8.35;;;;;;;10.46;47.19;100979.97;5011956;28;20029;-79
2022/10/17 00:47:05;;;;;;;10.25;8.10;;;;;;;9.94;47.34;100902.91;5013174;28;20580;-78
2022/10/17 00:49:34;;;;;;;14.48;8.15;;;;;;;9.93;47.35;100932.06;5013037;28;20055;-79
2022/10/17 00:52:03;;;;;;;11.25;7.25;;;;;;;9.96;47.64;100929.97;5012912;28;20419;-79
2022/10/17 00:54:44;;;;;;;11.45;7.65;;;;;;;10.26;47.80;100984.41;5012960;28;20026;-79
2022/10/17 00:57:10;;;;;;;12.85;7.25;;;;;;;9.52;48.01;100884.69;5012861;28;20572;-79
2022/10/17 00:59:39;;;;;;;16.38;8.10;;;;;;;9.54;47.74;100881.91;5011646;28;20018;-78
2022/10/17 01:02:08;;;;;;;12.50;7.78;;;;;;;9.76;47.37;100934.41;5012781;28;20026;-79
2022/10/17 01:04:35;;;;;;;11.35;7.40;;;;;;;9.71;47.60;100930.53;5012857;28;20021;-79
2022/10/17 01:07:01;;;;;;;12.18;8.57;;;;;;;9.64;47.44;100921.47;5012754;28;20112;-79
2022/10/17 01:09:26;;;;;;;13.20;7.45;;;;;;;9.31;47.51;100870.81;5013044;28;20026;-79
2022/10/17 01:12:03;;;;;;;11.98;8.05;;;;;;;9.98;47.69;100979.97;5012887;28;20029;-79
2022/10/17 01:14:39;;;;;;;10.20;6.93;;;;;;;9.98;47.39;100985.22;5011577;28;20065;-79
2022/10/17 01:17:33;;;;;;;12.15;7.22;;;;;;;9.98;47.53;100975.50;5011298;28;20041;-79
2022/10/17 01:20:17;;;;;;;12.15;7.78;;;;;;;9.90;47.75;100987.72;5011210;28;20018;-79
2022/10/17 01:23:31;;;;;;;12.27;7.43;;;;;;;9.77;48.07;100977.44;5012706;28;20026;-78
2022/10/17 01:26:11;;;;;;;11.60;6.85;;;;;;;9.68;47.50;100957.19;5010877;28;20034;-79
2022/10/17 01:29:06;;;;;;;10.60;7.38;;;;;;;9.29;48.38;100893.84;5012486;28;20029;-78
2022/10/17 01:31:46;;;;;;;10.95;6.72;;;;;;;9.73;48.15;100952.31;5012486;28;20492;-79
2022/10/17 01:34:17;;;;;;;12.68;6.60;;;;;;;9.85;48.32;100982.88;5012378;28;20032;-79
2022/10/17 01:36:58;;;;;;;9.77;6.55;;;;;;;9.86;48.48;100982.72;5012259;28;20022;-79
2022/10/17 01:39:42;;;;;;;10.20;6.90;;;;;;;9.48;48.44;100924.66;5012146;28;20026;-79
2022/10/17 01:42:17;;;;;;;14.10;7.93;;;;;;;9.83;48.46;100990.09;5012143;28;20030;-79
2022/10/17 01:45:07;;;;;;;12.13;7.30;;;;;;;9.84;48.45;100982.03;5012192;28;20040;-79
2022/10/17 01:47:33;;;;;;;9.07;6.47;;;;;;;9.54;48.31;100934.66;5011550;28;20076;-79
2022/10/17 01:50:23;;;;;;;9.40;7.00;;;;;;;9.56;48.61;100957.28;5012073;28;20026;-79
2022/10/17 01:52:55;;;;;;;9.38;6.88;;;;;;;9.73;48.49;100987.44;5011932;28;20471;-79
2022/10/17 01:55:27;;;;;;;12.73;6.85;;;;;;;9.25;48.56;100908.25;5010819;28;20491;-79
2022/10/17 01:58:02;;;;;;;12.30;6.82;;;;;;;9.60;48.40;100971.03;5010774;28;20035;-79
2022/10/17 02:00:28;;;;;;;8.38;7.18;;;;;;;9.13;48.39;100868.03;5011993;28;20014;-78
2022/10/17 02:02:58;;;;;;;8.98;7.63;;;;;;;9.84;48.51;101004.94;5011818;28;20117;-79
2022/10/17 02:05:30;;;;;;;12.43;6.72;;;;;;;9.35;48.68;100910.91;5011632;28;20018;-79
2022/10/17 02:07:56;;;;;;;9.70;6.78;;;;;;;9.31;48.87;100933.22;5011896;28;20121;-79
2022/10/17 02:10:37;;;;;;;13.55;7.20;;;;;;;8.98;49.32;100877.28;5011927;28;20169;-79
2022/10/17 02:13:12;;;;;;;10.25;7.50;;;;;;;9.10;49.34;100917.50;5011831;28;20022;-79
2022/10/17 02:16:10;;;;;;;11.32;7.05;;;;;;;9.41;49.70;100981.53;5011793;28;20034;-79
2022/10/17 02:18:57;;;;;;;10.90;6.97;;;;;;;9.38;49.64;100989.72;5011842;28;20550;-78
2022/10/17 02:22:20;;;;;;;11.23;7.95;;;;;;;9.39;49.92;100989.56;5011791;28;20024;-78
2022/10/17 02:24:54;;;;;;;13.18;8.45;;;;;;;9.39;49.54;100994.84;4990240;28;20070;-79
2022/10/17 02:27:31;;;;;;;10.63;7.72;;;;;;;9.39;49.45;100999.28;4989896;28;20030;-79
2022/10/17 02:30:25;;;;;;;15.23;8.20;;;;;;;9.23;49.94;100995.34;4994101;28;20040;-79
2022/10/17 02:33:02;;;;;;;13.00;8.68;;;;;;;8.88;49.88;100948.34;5011578;28;20494;-79
2022/10/17 02:35:34;;;;;;;13.35;7.47;;;;;;;8.23;49.86;100846.88;5010292;28;20022;-78
2022/10/17 02:38:02;;;;;;;13.88;7.75;;;;;;;9.17;49.92;101006.44;5011438;28;20026;-79
2022/10/17 02:40:30;;;;;;;12.48;8.02;;;;;;;9.05;49.44;101002.22;5011463;28;20089;-79
2022/10/17 02:42:58;;;;;;;10.45;8.50;;;;;;;8.53;49.38;100900.50;5011327;28;20022;-78
2022/10/17 02:45:27;;;;;;;13.80;8.40;;;;;;;9.39;49.38;101021.22;5011388;28;20454;-79
2022/10/17 02:48:03;;;;;;;11.60;8.23;;;;;;;8.95;49.48;100943.41;5011459;28;20022;-79
2022/10/17 02:50:52;;;;;;;14.02;8.00;;;;;;;9.35;49.33;101022.44;5010062;28;20526;-79
2022/10/17 02:53:28;;;;;;;11.95;8.07;;;;;;;9.03;49.40;100976.97;5011557;28;20045;-78
2022/10/17 02:56:01;;;;;;;10.88;8.05;;;;;;;9.35;49.45;101025.09;5011579;28;20101;-78
2022/10/17 02:58:32;;;;;;;16.05;8.20;;;;;;;8.81;49.21;100939.31;5014030;28;20136;-79
2022/10/17 03:00:59;;;;;;;10.75;7.18;;;;;;;8.68;49.31;100932.59;5013944;28;20457;-79
2022/10/17 03:03:31;;;;;;;13.68;7.78;;;;;;;9.27;49.57;101039.91;5014932;28;20029;-78
2022/10/17 03:05:57;;;;;;;10.25;8.43;;;;;;;8.79;49.47;100951.75;5014890;28;20097;-79
2022/10/17 03:08:23;;;;;;;10.98;7.22;;;;;;;9.09;49.46;100979.09;5014890;28;20115;-79
2022/10/17 03:10:49;;;;;;;8.50;6.75;;;;;;;9.38;49.14;101006.34;5013596;28;20021;-79
2022/10/17 03:13:15;;;;;;;13.35;7.60;;;;;;;9.55;49.28;101034.72;5013753;28;20410;-79
2022/10/17 03:15:41;;;;;;;9.15;6.72;;;;;;;9.09;48.96;100979.91;5014931;28;20030;-79
2022/10/17 03:18:06;;;;;;;9.85;6.75;;;;;;;9.08;49.60;100974.78;5014981;28;20072;-78
2022/10/17 03:20:32;;;;;;;12.73;7.40;;;;;;;9.47;49.48;101050.38;5013581;28;20022;-79
2022/10/17 03:22:57;;;;;;;8.60;6.50;;;;;;;9.24;49.88;101017.28;5014824;28;20056;-79
2022/10/17 03:25:23;;;;;;;10.32;6.93;;;;;;;9.23;49.71;101013.81;5013359;28;20491;-79
2022/10/17 03:27:48;;;;;;;10.80;6.57;;;;;;;8.66;49.55;100901.13;5014659;28;20034;-79
2022/10/17 03:30:13;;;;;;;9.52;6.85;;;;;;;9.66;49.37;101061.94;5014414;28;20028;-79
2022/10/17 03:32:39;;;;;;;11.85;7.28;;;;;;;9.09;49.83;101001.00;5014937;28;20418;-79
2022/10/17 03:35:04;;;;;;;10.23;6.65;;;;;;;9.06;49.86;100989.88;5014704;28;20037;-79
2022/10/17 03:37:30;;;;;;;14.50;7.97;;;;;;;9.12;50.12;101015.69;5013701;28;20117;-79
2022/10/17 03:39:55;;;;;;;10.77;6.85;;;;;;;8.84;50.19;100989.06;5014539;28;20036;-78
2022/10/17 03:42:20;;;;;;;9.55;6.95;;;;;;;9.03;50.14;101005.97;5014482;28;20034;-78
2022/10/17 03:44:46;;;;;;;13.30;7.78;;;;;;;8.96;50.68;101010.09;5014376;28;20029;-78
2022/10/17 03:47:11;;;;;;;11.88;7.82;;;;;;;9.07;50.25;101026.63;5013138;28;20549;-79
2022/10/17 03:49:37;;;;;;;15.57;8.52;;;;;;;8.65;50.31;100961.81;5014304;28;20101;-79
2022/10/17 03:52:02;;;;;;;10.63;8.00;;;;;;;8.84;49.82;100989.06;5014185;28;20030;-79
2022/10/17 03:54:28;;;;;;;13.55;8.30;;;;;;;9.20;49.85;101032.53;5014069;28;20097;-79
2022/10/17 03:56:53;;;;;;;9.77;7.15;;;;;;;8.69;49.68;100963.22;5012989;28;20045;-79
2022/10/17 03:59:18;;;;;;;10.23;7.47;;;;;;;9.35;49.73;101059.34;5014266;28;20053;-79
2022/10/17 04:01:44;;;;;;;12.25;6.78;;;;;;;8.95;49.66;100989.97;5014250;28;20474;-79
2022/10/17 04:04:09;;;;;;;11.43;6.47;;;;;;;9.12;49.83;101031.50;5013996;28;20022;-79
2022/10/17 04:06:35;;;;;;;11.90;7.07;;;;;;;9.08;50.08;101027.47;5013977;28;20038;-79
2022/10/17 04:09:01;;;;;;;12.40;7.13;;;;;;;9.37;50.29;101091.69;5012863;28;20026;-79
2022/10/17 04:11:26;;;;;;;10.85;7.50;;;;;;;8.76;50.64;101004.69;5013884;28;20026;-78
2022/10/17 04:13:54;;;;;;;11.20;7.93;;;;;;;9.20;51.03;101097.56;5012773;28;20022;-79
2022/10/17 04:16:19;;;;;;;13.05;8.05;;;;;;;9.17;50.74;101085.50;5013897;28;20037;-79
2022/10/17 04:18:45;;;;;;;13.90;10.63;;;;;;;9.09;50.77;101076.56;5013886;28;20017;-79
2022/10/17 04:21:11;;;;;;;10.27;9.15;;;;;;;9.04;50.99;101084.88;5013938;28;20022;-79
2022/10/17 04:23:37;;;;;;;13.63;9.88;;;;;;;9.07;50.92;101094.31;5013544;28;20044;-79
2022/10/17 04:26:04;;;;;;;12.50;8.95;;;;;;;8.44;51.20;101006.59;5013430;28;20026;-80
2022/10/17 04:28:31;;;;;;;15.10;8.93;;;;;;;9.09;50.72;101087.09;5012169;28;20105;-79
2022/10/17 04:31:05;;;;;;;13.00;9.55;;;;;;;9.14;50.81;101092.81;5013536;28;20026;-79
2022/10/17 04:33:31;;;;;;;13.73;8.77;;;;;;;9.14;50.69;101103.38;5013284;28;20022;-79
2022/10/17 04:36:01;;;;;;;16.75;9.52;;;;;;;9.02;50.32;101076.25;5013300;28;20060;-79
2022/10/17 04:38:28;;;;;;;14.27;10.85;;;;;;;9.24;50.75;101114.78;5013756;28;20026;-79
2022/10/17 04:40:55;;;;;;;11.25;9.35;;;;;;;9.22;50.41;101109.66;5012098;28;20045;-79
2022/10/17 04:43:21;;;;;;;15.07;9.73;;;;;;;8.81;50.53;101041.19;5012136;28;20483;-79
2022/10/17 04:45:46;;;;;;;12.68;9.93;;;;;;;8.85;50.64;101053.94;5013342;28;20021;-79
2022/10/17 04:48:11;;;;;;;17.48;9.98;;;;;;;9.23;50.80;101107.84;5012039;28;20470;-79
2022/10/17 04:50:37;;;;;;;14.88;9.32;;;;;;;9.22;50.70;101119.34;5013133;28;20022;-79
2022/10/17 04:53:02;;;;;;;15.80;9.57;;;;;;;8.58;50.55;101038.69;5013127;28;20164;-78
2022/10/17 04:55:27;;;;;;;13.07;8.45;;;;;;;8.63;50.86;101048.81;5013110;28;20033;-78
2022/10/17 04:57:53;;;;;;;18.40;9.27;;;;;;;8.73;51.44;101076.06;5013043;28;20495;-79
2022/10/17 05:00:19;;;;;;;17.13;9.20;;;;;;;8.48;51.41;101050.09;5013019;28;20022;-78
2022/10/17 05:02:44;;;;;;;23.40;10.30;;;;;;;8.15;51.17;101003.69;5012931;28;20072;-79
2022/10/17 05:05:10;;;;;;;13.57;9.38;;;;;;;9.00;51.60;101138.78;5011610;28;20033;-79
2022/10/17 05:07:39;;;;;;;12.38;8.95;;;;;;;8.79;51.26;101093.97;5011247;28;20046;-79
2022/10/17 05:10:04;;;;;;;11.77;8.35;;;;;;;8.52;51.19;101022.56;5011753;28;20080;-79
2022/10/17 05:12:30;;;;;;;12.90;7.97;;;;;;;9.18;51.23;101150.41;5012553;28;20030;-79
2022/10/17 05:14:55;;;;;;;12.80;8.43;;;;;;;9.02;50.98;101104.41;5012656;28;20104;-79
2022/10/17 05:17:20;;;;;;;14.52;10.23;;;;;;;8.71;51.14;101059.56;5012565;28;20032;-79
2022/10/17 05:19:46;;;;;;;18.42;9.98;;;;;;;8.56;50.96;101063.47;5012341;28;20475;-80
2022/10/17 05:22:11;;;;;;;17.40;11.70;;;;;;;8.85;51.57;101111.91;5011548;28;20022;-80
2022/10/17 05:24:37;;;;;;;21.05;11.90;;;;;;;8.78;51.23;101115.16;5010547;28;20498;-79
2022/10/17 05:27:03;;;;;;;21.73;13.00;;;;;;;8.37;51.40;101031.75;5011405;28;20022;-79
2022/10/17 05:29:28;;;;;;;23.67;12.80;;;;;;;9.21;51.24;101152.78;5012252;28;20029;-79
2022/10/17 05:31:53;;;;;;;21.25;11.48;;;;;;;8.88;51.33;101100.25;5012052;28;20022;-79
2022/10/17 05:34:19;;;;;;;22.80;12.55;;;;;;;8.94;50.90;101093.69;5011561;28;20465;-79
2022/10/17 05:36:44;;;;;;;18.70;11.15;;;;;;;8.82;51.00;101082.34;5011988;28;20029;-78
2022/10/17 05:39:13;;;;;;;16.15;10.63;;;;;;;8.99;50.96;101112.56;5011754;28;20577;-78
2022/10/17 05:41:39;;;;;;;20.45;12.70;;;;;;;9.05;51.15;101114.69;5011670;28;20033;-78
2022/10/17 05:44:04;;;;;;;19.02;11.70;;;;;;;8.61;51.16;101032.31;5011253;28;20026;-79
2022/10/17 05:46:29;;;;;;;20.20;12.48;;;;;;;9.03;50.87;101113.97;5000414;28;21275;-79
2022/10/17 05:48:55;;;;;;;17.15;11.18;;;;;;;9.35;50.75;101166.59;5010121;28;20026;-79
2022/10/17 05:51:21;;;;;;;21.25;11.27;;;;;;;9.42;50.74;101159.81;5010587;28;20057;-79
2022/10/17 05:53:46;;;;;;;17.38;11.10;;;;;;;9.00;50.54;101111.59;5011152;28;20045;-79
2022/10/17 05:56:13;;;;;;;20.85;11.75;;;;;;;8.48;50.98;101040.41;5009945;28;20411;-79
2022/10/17 05:58:41;;;;;;;19.75;12.30;;;;;;;8.58;50.89;101011.53;5011373;28;20030;-79
2022/10/17 06:01:07;;;;;;;16.73;10.23;;;;;;;9.20;50.76;101110.75;5004106;28;20022;-79
2022/10/17 06:03:33;;;;;;;16.13;10.93;;;;;;;8.71;51.23;101042.91;5009266;28;20049;-79
2022/10/17 06:06:06;;;;;;;18.05;10.68;;;;;;;9.54;51.49;101169.31;5005812;28;20061;-79
2022/10/17 06:08:31;;;;;;;16.27;10.77;;;;;;;9.72;51.59;101193.31;5011172;28;20521;-79
2022/10/17 06:10:57;;;;;;;19.80;11.00;;;;;;;9.02;51.15;101059.63;5004286;28;20030;-79
2022/10/17 06:13:22;;;;;;;28.58;10.15;;;;;;;9.78;51.04;101174.31;5000307;28;20117;-79
2022/10/17 06:15:48;;;;;;;23.10;11.27;;;;;;;9.82;51.54;101154.59;5009429;28;20408;-79
2022/10/17 06:18:13;;;;;;;13.75;9.82;;;;;;;8.23;50.97;100930.25;5011316;28;20017;-80
2022/10/17 06:20:39;;;;;;;13.05;9.40;;;;;;;10.22;51.57;101199.47;5011155;28;20048;-79
2022/10/17 06:23:05;;;;;;;13.60;10.75;;;;;;;9.65;51.88;101090.13;5009905;28;20037;-79
2022/10/17 06:25:31;;;;;;;17.08;11.50;;;;;;;10.33;51.77;101187.97;5005822;28;20072;-79
2022/10/17 06:27:56;;;;;;;18.33;13.15;;;;;;;9.00;51.31;100987.78;5000409;28;20025;-79
2022/10/17 06:30:22;;;;;;;17.85;11.60;;;;;;;9.98;51.66;101139.09;5008778;28;20026;-79
2022/10/17 06:32:47;;;;;;;17.58;12.60;;;;;;;10.32;51.94;101178.38;5002472;28;20521;-78
2022/10/17 06:35:13;;;;;;;14.70;9.95;;;;;;;9.98;51.92;101099.53;5003214;28;20018;-80
2022/10/17 06:37:38;;;;;;;13.93;9.57;;;;;;;10.70;51.05;101183.72;5000909;28;20495;-79
2022/10/17 06:40:06;;;;;;;13.18;9.15;;;;;;;10.93;51.51;101189.56;5009450;28;20018;-80
2022/10/17 06:42:32;;;;;;;16.00;11.38;;;;;;;11.05;51.27;101209.59;5010180;28;20033;-80
2022/10/17 06:44:58;;;;;;;23.05;16.63;;;;;;;10.73;51.18;101138.53;5011341;28;20029;-79
2022/10/17 06:47:23;;;;;;;16.60;9.20;;;;;;;10.60;50.98;101071.97;5010838;28;20021;-79
2022/10/17 06:49:48;;;;;;;10.27;7.82;;;;;;;11.27;50.71;101166.16;5010332;28;20022;-77
2022/10/17 06:52:15;;;;;;;11.25;6.80;;;;;;;11.30;51.01;101154.47;5010411;28;20121;-77
2022/10/17 06:54:42;;;;;;;14.32;9.20;;;;;;;11.76;50.59;101210.00;5005327;28;20022;-80
2022/10/17 06:57:07;;;;;;;11.50;8.35;;;;;;;11.28;50.69;101112.31;5003759;28;20022;-77
2022/10/17 06:59:32;;;;;;;9.23;7.45;;;;;;;11.33;49.92;101111.88;5002981;28;20024;-79
2022/10/17 07:02:00;;;;;;;10.88;7.68;;;;;;;12.00;50.36;101209.56;4993521;28;20491;-77
2022/10/17 07:04:26;;;;;;;10.93;7.50;;;;;;;11.73;49.71;101135.38;5002807;28;20080;-79
2022/10/17 07:06:51;;;;;;;10.20;7.45;;;;;;;12.25;49.84;101178.91;5004456;28;20066;-79
2022/10/17 07:09:17;;;;;;;9.23;7.00;;;;;;;12.64;49.56;101229.00;5003851;28;20062;-79
2022/10/17 07:11:42;;;;;;;7.60;6.68;;;;;;;11.29;49.56;100988.88;5008834;28;20151;-79
2022/10/17 07:14:07;;;;;;;9.82;7.25;;;;;;;11.47;49.76;101000.31;4993497;28;20030;-78
2022/10/17 07:16:33;;;;;;;10.10;7.15;;;;;;;12.63;49.03;101156.63;5010537;28;20105;-79
2022/10/17 07:18:59;;;;;;;8.50;6.90;;;;;;;13.17;48.79;101230.84;5009888;28;20022;-79
2022/10/17 07:21:24;;;;;;;10.02;6.90;;;;;;;13.12;48.78;101236.56;5010388;28;20403;-79
2022/10/17 07:23:50;;;;;;;8.27;6.85;;;;;;;12.61;48.46;101139.19;5008617;28;20021;-79
2022/10/17 07:26:16;;;;;;;9.65;6.85;;;;;;;12.49;48.73;101098.84;5001402;28;20109;-79
2022/10/17 07:28:44;;;;;;;9.63;7.57;;;;;;;13.28;48.26;101188.97;5004043;28;20510;-79
2022/10/17 07:31:15;;;;;;;8.88;7.38;;;;;;;13.58;47.83;101224.03;5011078;28;20033;-79
2022/10/17 07:33:42;;;;;;;9.82;6.43;;;;;;;13.66;47.70;101227.56;5010768;28;20105;-79
2022/10/17 07:36:08;;;;;;;18.25;7.82;;;;;;;13.59;47.36;101200.00;5008715;28;20030;-79
2022/10/17 07:38:33;;;;;;;11.63;6.70;;;;;;;12.82;47.12;101062.84;5004292;28;20018;-80
2022/10/17 07:41:01;;;;;;;13.82;7.45;;;;;;;13.50;46.92;101169.09;5001545;28;20414;-79
2022/10/17 07:43:28;;;;;;;12.93;8.88;;;;;;;13.78;46.75;101183.00;5030275;28;20430;-79
2022/10/17 07:45:54;;;;;;;9.88;7.13;;;;;;;13.83;46.44;101177.22;5008069;28;20403;-79
2022/10/17 07:48:21;;;;;;;12.20;8.23;;;;;;;13.50;46.18;101118.66;5012219;28;20127;-79
2022/10/17 07:50:47;;;;;;;9.98;7.88;;;;;;;14.24;46.05;101228.69;5011082;28;20030;-79
2022/10/17 07:53:13;;;;;;;11.43;7.95;;;;;;;14.31;45.61;101229.72;5004428;28;20099;-79
2022/10/17 07:55:40;;;;;;;13.15;8.48;;;;;;;14.40;45.78;101227.91;5006495;28;20026;-79
2022/10/17 07:58:05;;;;;;;8.93;6.43;;;;;;;13.74;45.49;101125.06;5007593;28;20034;-79
2022/10/17 08:00:31;;;;;;;12.40;7.30;;;;;;;14.09;45.25;101158.56;5008369;28;20022;-79
2022/10/17 08:02:56;;;;;;;13.48;7.53;;;;;;;14.31;45.17;101177.41;5006246;28;20021;-79
2022/10/17 08:05:22;;;;;;;9.32;7.15;;;;;;;14.14;44.93;101137.69;5003350;28;20164;-79
2022/10/17 08:07:47;;;;;;;8.60;6.60;;;;;;;14.05;44.72;101117.38;5005331;28;20057;-79
2022/10/17 08:10:14;;;;;;;11.23;7.18;;;;;;;14.27;44.65;101152.16;5004597;28;20058;-79
2022/10/17 08:12:39;;;;;;;10.52;8.00;;;;;;;14.34;44.75;101154.16;5011009;28;20021;-79
2022/10/17 08:15:06;;;;;;;11.38;6.63;;;;;;;14.73;44.37;101197.78;5013353;28;20092;-79
2022/10/17 08:17:34;;;;;;;13.30;8.93;;;;;;;14.97;44.23;101220.94;4999826;28;20037;-79
2022/10/17 08:19:59;;;;;;;8.52;7.05;;;;;;;14.61;43.91;101154.72;5011599;28;20053;-79
2022/10/17 08:22:25;;;;;;;11.15;7.43;;;;;;;14.97;43.82;101209.47;5012093;28;20116;-79
2022/10/17 08:24:50;;;;;;;9.65;8.50;;;;;;;14.47;43.97;101117.34;5045234;28;20021;-79
2022/10/17 08:27:20;;;;;;;9.82;7.40;;;;;;;15.22;43.56;101237.72;5013301;28;20037;-79
2022/10/17 08:29:47;;;;;;;8.18;6.18;;;;;;;14.94;43.52;101176.88;5013062;28;20021;-79
2022/10/17 08:32:13;;;;;;;9.63;7.40;;;;;;;15.01;43.48;101163.75;5013402;28;20105;-78
2022/10/17 08:34:38;;;;;;;5.13;4.63;;;;;;;14.99;43.78;101155.09;5001277;28;20118;-79
2022/10/17 08:37:04;;;;;;;10.55;7.47;;;;;;;15.10;43.92;101168.06;5008836;28;20655;-78
2022/10/17 08:39:29;;;;;;;8.23;5.45;;;;;;;15.00;43.55;101135.47;5019285;28;20108;-78
2022/10/17 08:42:07;;;;;;;7.63;6.00;;;;;;;15.54;43.48;101208.41;5004020;28;20097;-78
2022/10/17 08:44:54;;;;;;;10.40;8.27;;;;;;;15.61;43.54;101211.28;5009892;28;20030;-78
2022/10/17 08:47:33;;;;;;;12.75;10.25;;;;;;;15.39;43.62;101179.97;5009862;28;20041;-78
2022/10/17 08:50:01;;;;;;;12.18;9.40;;;;;;;15.17;43.67;101099.88;5024808;28;20021;-78
2022/10/17 08:52:39;;;;;;;7.65;4.53;;;;;;;15.90;43.60;101202.69;5006618;28;20018;-77
2022/10/17 08:55:16;;;;;;;7.88;6.20;;;;;;;15.75;43.59;101159.97;5007093;28;20029;-79
2022/10/17 08:57:42;;;;;;;7.03;4.15;;;;;;;15.82;43.34;101184.91;5001932;28;20029;-79
2022/10/17 09:00:18;;;;;;;9.45;7.93;;;;;;;16.02;43.67;101177.34;5009232;28;20030;-78
2022/10/17 09:03:04;;;;;;;8.57;6.13;;;;;;;16.25;43.48;101201.38;5012529;28;20526;-79
2022/10/17 09:05:36;;;;;;;7.28;4.13;;;;;;;16.10;43.44;101182.63;5003536;28;20033;-80
2022/10/17 09:08:20;;;;;;;;;;;;;;;16.19;43.40;101205.56;5004600;28;20069;-79
2022/10/17 09:11:04;;;;;;;10.73;8.05;;;;;;;16.36;43.34;101211.69;5009034;28;19917;-79
2022/10/17 09:13:41;;;;;;;5.50;4.22;;;;;;;16.43;43.39;101209.13;5010464;28;20021;-79
2022/10/17 09:16:22;;;;;;;7.80;5.10;;;;;;;16.42;43.53;101202.16;4991941;28;20101;-79
2022/10/17 09:19:00;;;;;;;4.78;3.40;;;;;;;15.62;44.25;101077.16;4998209;28;20026;-79
2022/10/17 09:21:49;;;;;;;7.53;5.38;;;;;;;16.50;44.04;101200.25;5005419;28;20117;-80
2022/10/17 09:24:37;;;;;;;6.20;3.78;;;;;;;15.98;44.04;101092.63;5025259;28;20028;-78
2022/10/17 09:27:04;;;;;;;6.75;4.00;;;;;;;16.33;43.56;101141.88;5030410;28;20016;-79
2022/10/17 09:29:30;;;;;;;5.22;4.00;;;;;;;16.27;43.67;101119.41;5013254;28;20045;-79
2022/10/17 09:32:10;;;;;;;4.40;3.67;;;;;;;16.05;44.04;101094.41;5010099;28;20029;-79
2022/10/17 09:34:36;;;;;;;4.90;3.28;;;;;;;16.56;43.81;101155.22;5009338;28;20096;-79
2022/10/17 09:37:02;;;;;;;8.05;4.18;;;;;;;16.40;43.97;101124.19;5004131;28;20125;-79
2022/10/17 09:39:31;;;;;;;5.03;3.67;;;;;;;16.49;43.36;101115.13;5003742;28;20015;-79
2022/10/17 09:41:59;;;;;;;6.75;3.47;;;;;;;16.49;43.43;101118.63;5006267;28;20021;-79
2022/10/17 09:44:32;;;;;;;7.00;3.75;;;;;;;17.18;43.04;101169.28;5009434;28;20036;-79
2022/10/17 09:47:15;;;;;;;4.68;3.80;;;;;;;17.41;42.70;101170.03;5009769;28;20407;-79
2022/10/17 09:49:43;;;;;;;6.20;5.30;;;;;;;17.63;42.33;101154.94;5005271;28;20062;-79
2022/10/17 09:52:17;;;;;;;6.00;4.75;;;;;;;16.58;41.77;100951.41;5001380;28;20034;-77
2022/10/17 09:54:56;;;;;;;3.85;3.38;;;;;;;18.02;41.42;101159.19;5004537;28;20026;-79
2022/10/17 09:57:22;;;;;;;5.75;3.88;;;;;;;17.73;41.56;101117.28;5010092;28;20026;-79
2022/10/17 09:59:57;;;;;;;6.32;4.65;;;;;;;17.93;41.61;101152.31;5011332;28;20028;-79
2022/10/17 10:02:25;;;;;;;6.35;5.28;;;;;;;17.42;41.78;101074.75;5009714;28;20033;-79
2022/10/17 10:04:56;;;;;;;5.57;4.00;;;;;;;17.89;41.93;101156.38;5010518;28;20449;-78
2022/10/17 10:07:23;;;;;;;8.18;4.32;;;;;;;17.53;42.01;101118.84;5005621;28;20434;-79
2022/10/17 10:09:49;;;;;;;7.00;5.68;;;;;;;16.87;42.12;101008.47;5000659;28;20471;-78
2022/10/17 10:12:26;;;;;;;6.75;4.35;;;;;;;17.47;42.10;101110.56;5007261;28;20065;-78
2022/10/17 10:14:52;;;;;;;7.28;5.50;;;;;;;17.45;42.11;101101.09;5006993;28;20021;-79
2022/10/17 10:17:40;;;;;;;6.18;4.22;;;;;;;17.70;42.34;101155.06;4992376;28;20109;-79
2022/10/17 10:20:36;;;;;;;5.95;4.93;;;;;;;17.60;42.41;101149.97;5011096;28;20080;-79
2022/10/17 10:23:16;;;;;;;8.13;6.68;;;;;;;17.52;42.46;101152.72;5008610;28;20061;-78
2022/10/17 10:26:00;;;;;;;13.73;7.90;;;;;;;17.13;42.63;101099.59;5007493;28;20014;-79
2022/10/17 10:28:34;;;;;;;6.45;4.97;;;;;;;17.60;42.45;101141.13;5004856;28;20396;-78
2022/10/17 10:31:03;;;;;;;5.93;5.15;;;;;;;17.88;42.22;101142.19;5003250;28;20081;-78
2022/10/17 10:33:32;;;;;;;5.88;3.67;;;;;;;17.50;41.55;101018.56;5011452;28;20022;-79
2022/10/17 10:36:00;;;;;;;8.38;4.50;;;;;;;17.98;41.28;101051.84;5006754;28;20521;-78
2022/10/17 10:38:27;;;;;;;7.60;4.47;;;;;;;18.56;40.78;101122.13;5008375;28;20088;-79
2022/10/17 10:41:02;;;;;;;6.20;4.90;;;;;;;18.53;40.56;101124.38;4992446;28;20379;-79
2022/10/17 10:43:36;;;;;;;6.03;4.30;;;;;;;18.45;40.53;101089.72;5005171;28;20052;-79
2022/10/17 10:46:05;;;;;;;7.53;5.22;;;;;;;18.29;40.34;101040.00;5004633;28;20026;-78
2022/10/17 10:48:35;;;;;;;7.15;4.32;;;;;;;19.00;39.49;101127.31;5006651;28;20030;-78
2022/10/17 10:51:11;;;;;;;5.95;3.92;;;;;;;18.96;39.60;101083.22;5008346;28;20435;-79
2022/10/17 10:53:46;;;;;;;4.15;3.72;;;;;;;18.81;39.14;101014.75;5002030;28;20105;-78
2022/10/17 10:56:33;;;;;;;7.35;3.80;;;;;;;19.47;39.20;101107.03;5002814;28;20068;-78
2022/10/17 10:59:07;;;;;;;5.82;4.38;;;;;;;19.60;38.80;101098.28;5001253;28;20022;-79
2022/10/17 11:01:51;;;;;;;6.90;5.20;;;;;;;19.21;38.67;101005.94;5002216;28;20126;-78
2022/10/17 11:04:37;;;;;;;5.57;4.13;;;;;;;19.54;38.69;101050.84;5006647;28;20025;-78
2022/10/17 11:07:13;;;;;;;8.48;4.47;;;;;;;19.66;38.41;101070.69;5004452;28;20149;-79
2022/10/17 11:09:52;;;;;;;8.15;4.18;;;;;;;19.98;38.11;101101.31;5007712;28;20018;-79
2022/10/17 11:12:21;;;;;;;8.07;4.47;;;;;;;19.97;37.99;101102.34;5005901;28;20025;-79
2022/10/17 11:14:58;;;;;;;5.40;3.60;;;;;;;19.91;37.52;101097.78;5006533;28;20479;-79
2022/10/17 11:17:52;;;;;;;7.72;4.10;;;;;;;19.84;38.40;101088.88;4993947;28;20033;-79
2022/10/17 11:20:31;;;;;;;6.22;4.30;;;;;;;19.67;37.88;101065.13;5013425;28;20025;-78
2022/10/17 11:23:23;;;;;;;5.38;3.50;;;;;;;19.50;38.24;101058.41;5012576;28;20034;-79
2022/10/17 11:25:51;;;;;;;9.52;4.70;;;;;;;19.72;38.27;101085.13;4993242;28;20038;-79
2022/10/17 11:28:20;;;;;;;12.02;4.88;;;;;;;19.75;38.44;101104.31;4994882;28;20030;-79
2022/10/17 11:31:11;;;;;;;10.07;4.80;;;;;;;19.46;38.32;101022.34;4994639;28;20165;-79
2022/10/17 11:33:59;;;;;;;9.82;4.85;;;;;;;19.61;38.12;101040.97;4997574;28;20113;-78
2022/10/17 11:36:33;;;;;;;9.55;5.05;;;;;;;19.46;38.39;101024.19;4999823;28;20026;-79
2022/10/17 11:39:27;;;;;;;8.23;4.45;;;;;;;19.82;38.30;101078.38;5012763;28;20050;-78